sensor_id;sensor_type;location;lat;lon;timestamp;temperature;humidity
1644;DHT22;46825;51.99869940;8.49421771;2023-10-19T00:00:57;9.30;99.90
1644;DHT22;46825;51.99869940;8.49421771;2023-10-19T00:02:00;9.20;99.90
1644;DHT22;46825;51.99869940;8.49421771;2023-10-19T00:03:00;9.20;99.90
1644;DHT22;46825;51.99869940;8.49421771;2023-10-19T00:04:04;9.20;99.90
1644;DHT22;46825;51.99869940;8.49421771;2023-10-19T00:05:07;9.30;99.90
1644;DHT22;46825;51.99869940;8.49421771;2023-10-19T00:06:10;9.30;99.90
1644;DHT22;46825;51.99869940;8.49421771;2023-10-19T00:07:11;9.20;99.90
1644;DHT22;46825;51.99869940;8.49421771;2023-10-19T00:08:16;9.20;99.90
1644;DHT22;46825;51.99869940;8.49421771;2023-10-19T00:09:23;9.30;99.90
1644;DHT22;46825;51.99869940;8.49421771;2023-10-19T00:10:24;5.70;99.90
1644;DHT22;46825;51.99869940;8.49421771;2023-10-19T00:11:29;9.30;99.90
1644;DHT22;46825;51.99869940;8.49421771;2023-10-19T00:12:31;9.30;99.90
1644;DHT22;46825;51.99869940;8.49421771;2023-10-19T00:13:32;9.30;99.90
1644;DHT22;46825;51.99869940;8.49421771;2023-10-19T00:14:35;9.20;99.90
1644;DHT22;46825;51.99869940;8.49421771;2023-10-19T00:15:36;9.20;99.90
1644;DHT22;46825;51.99869940;8.49421771;2023-10-19T00:16:51;9.10;99.90
1644;DHT22;46825;51.99869940;8.49421771;2023-10-19T00:18:00;9.20;99.90
1644;DHT22;46825;51.99869940;8.49421771;2023-10-19T00:19:16;9.20;99.90
1644;DHT22;46825;51.99869940;8.49421771;2023-10-19T00:20:20;9.20;99.90
1644;DHT22;46825;51.99869940;8.49421771;2023-10-19T00:21:47;9.20;99.90
1644;DHT22;46825;51.99869940;8.49421771;2023-10-19T00:22:51;9.20;99.90
1644;DHT22;46825;51.99869940;8.49421771;2023-10-19T00:23:54;9.20;99.90
1644;DHT22;46825;51.99869940;8.49421771;2023-10-19T00:24:58;9.20;99.90
1644;DHT22;46825;51.99869940;8.49421771;2023-10-19T00:26:00;9.20;99.90
1644;DHT22;46825;51.99869940;8.49421771;2023-10-19T00:29:05;9.20;99.90
1644;DHT22;46825;51.99869940;8.49421771;2023-10-19T00:30:26;10.60;99.90
1644;DHT22;46825;51.99869940;8.49421771;2023-10-19T00:31:31;9.20;99.90
1644;DHT22;46825;51.99869940;8.49421771;2023-10-19T00:32:34;9.20;99.90
1644;DHT22;46825;51.99869940;8.49421771;2023-10-19T00:33:39;9.20;99.90
1644;DHT22;46825;51.99869940;8.49421771;2023-10-19T00:34:40;9.20;99.90
1644;DHT22;46825;51.99869940;8.49421771;2023-10-19T00:35:40;9.20;99.90
1644;DHT22;46825;51.99869940;8.49421771;2023-10-19T00:36:47;12.20;99.90
1644;DHT22;46825;51.99869940;8.49421771;2023-10-19T00:37:48;9.20;99.90
1644;DHT22;46825;51.99869940;8.49421771;2023-10-19T00:38:50;9.20;99.90
1644;DHT22;46825;51.99869940;8.49421771;2023-10-19T00:39:51;9.20;99.90
1644;DHT22;46825;51.99869940;8.49421771;2023-10-19T00:40:55;9.20;99.90
1644;DHT22;46825;51.99869940;8.49421771;2023-10-19T00:42:12;9.20;99.90
1644;DHT22;46825;51.99869940;8.49421771;2023-10-19T00:43:29;9.20;99.90
1644;DHT22;46825;51.99869940;8.49421771;2023-10-19T00:44:32;9.10;99.90
1644;DHT22;46825;51.99869940;8.49421771;2023-10-19T00:45:42;9.10;99.90
1644;DHT22;46825;51.99869940;8.49421771;2023-10-19T00:46:43;9.20;99.90
1644;DHT22;46825;51.99869940;8.49421771;2023-10-19T00:47:44;9.30;99.90
1644;DHT22;46825;51.99869940;8.49421771;2023-10-19T00:48:57;9.20;99.90
1644;DHT22;46825;51.99869940;8.49421771;2023-10-19T00:49:59;9.20;99.90
1644;DHT22;46825;51.99869940;8.49421771;2023-10-19T00:51:04;9.20;99.90
1644;DHT22;46825;51.99869940;8.49421771;2023-10-19T00:52:09;9.20;99.90
1644;DHT22;46825;51.99869940;8.49421771;2023-10-19T00:54:34;9.30;99.90
1644;DHT22;46825;51.99869940;8.49421771;2023-10-19T00:55:36;9.20;99.90
1644;DHT22;46825;51.99869940;8.49421771;2023-10-19T00:56:37;9.20;99.90
1644;DHT22;46825;51.99869940;8.49421771;2023-10-19T00:57:42;7.80;99.90
1644;DHT22;46825;51.99869940;8.49421771;2023-10-19T00:58:49;9.20;99.90
1644;DHT22;46825;51.99869940;8.49421771;2023-10-19T00:59:54;9.20;99.90
1644;DHT22;46825;51.99869940;8.49421771;2023-10-19T01:00:56;9.20;99.90
1644;DHT22;46825;51.99869940;8.49421771;2023-10-19T01:01:57;9.20;99.90
1644;DHT22;46825;51.99869940;8.49421771;2023-10-19T01:03:16;9.30;99.90
1644;DHT22;46825;51.99869940;8.49421771;2023-10-19T01:04:17;9.30;99.90
1644;DHT22;46825;51.99869940;8.49421771;2023-10-19T01:05:23;9.30;99.90
1644;DHT22;46825;51.99869940;8.49421771;2023-10-19T01:06:24;9.30;99.90
1644;DHT22;46825;51.99869940;8.49421771;2023-10-19T01:07:26;9.20;99.90
1644;DHT22;46825;51.99869940;8.49421771;2023-10-19T01:08:27;9.30;99.90
1644;DHT22;46825;51.99869940;8.49421771;2023-10-19T01:09:34;9.30;99.90
1644;DHT22;46825;51.99869940;8.49421771;2023-10-19T01:10:36;9.20;99.90
1644;DHT22;46825;51.99869940;8.49421771;2023-10-19T01:11:37;9.20;99.90
1644;DHT22;46825;51.99869940;8.49421771;2023-10-19T01:12:37;9.20;99.90
1644;DHT22;46825;51.99869940;8.49421771;2023-10-19T01:13:41;9.20;99.90
1644;DHT22;46825;51.99869940;8.49421771;2023-10-19T01:15:01;9.20;99.90
1644;DHT22;46825;51.99869940;8.49421771;2023-10-19T01:16:12;9.10;99.90
1644;DHT22;46825;51.99869940;8.49421771;2023-10-19T01:17:16;9.10;99.90
1644;DHT22;46825;51.99869940;8.49421771;2023-10-19T01:18:16;9.10;99.90
1644;DHT22;46825;51.99869940;8.49421771;2023-10-19T01:19:17;9.20;99.90
1644;DHT22;46825;51.99869940;8.49421771;2023-10-19T01:20:21;9.20;99.90
1644;DHT22;46825;51.99869940;8.49421771;2023-10-19T01:21:24;9.20;99.90
1644;DHT22;46825;51.99869940;8.49421771;2023-10-19T01:22:37;9.20;99.90
1644;DHT22;46825;51.99869940;8.49421771;2023-10-19T01:23:38;9.30;99.90
1644;DHT22;46825;51.99869940;8.49421771;2023-10-19T01:24:39;9.10;99.90
1644;DHT22;46825;51.99869940;8.49421771;2023-10-19T01:25:46;9.10;99.90
1644;DHT22;46825;51.99869940;8.49421771;2023-10-19T01:26:52;9.20;99.90
1644;DHT22;46825;51.99869940;8.49421771;2023-10-19T01:27:54;9.20;99.90
1644;DHT22;46825;51.99869940;8.49421771;2023-10-19T01:28:58;9.20;99.90
1644;DHT22;46825;51.99869940;8.49421771;2023-10-19T01:30:03;9.20;99.90
1644;DHT22;46825;51.99869940;8.49421771;2023-10-19T01:31:04;5.90;99.90
1644;DHT22;46825;51.99869940;8.49421771;2023-10-19T01:32:08;9.10;99.90
1644;DHT22;46825;51.99869940;8.49421771;2023-10-19T01:33:08;9.30;99.90
1644;DHT22;46825;51.99869940;8.49421771;2023-10-19T01:34:13;9.20;99.90
1644;DHT22;46825;51.99869940;8.49421771;2023-10-19T01:35:14;9.20;99.90
1644;DHT22;46825;51.99869940;8.49421771;2023-10-19T01:36:15;9.10;99.90
1644;DHT22;46825;51.99869940;8.49421771;2023-10-19T01:37:24;9.20;99.90
1644;DHT22;46825;51.99869940;8.49421771;2023-10-19T01:38:25;9.10;99.90
1644;DHT22;46825;51.99869940;8.49421771;2023-10-19T01:39:25;9.10;99.90
1644;DHT22;46825;51.99869940;8.49421771;2023-10-19T01:40:26;9.10;99.90
1644;DHT22;46825;51.99869940;8.49421771;2023-10-19T01:41:30;9.20;99.90
1644;DHT22;46825;51.99869940;8.49421771;2023-10-19T01:42:31;9.10;99.90
1644;DHT22;46825;51.99869940;8.49421771;2023-10-19T01:43:32;9.10;99.90
1644;DHT22;46825;51.99869940;8.49421771;2023-10-19T01:44:32;9.10;99.90
1644;DHT22;46825;51.99869940;8.49421771;2023-10-19T01:45:36;9.20;99.90
1644;DHT22;46825;51.99869940;8.49421771;2023-10-19T01:46:37;9.20;99.90
1644;DHT22;46825;51.99869940;8.49421771;2023-10-19T01:47:37;9.10;99.90
1644;DHT22;46825;51.99869940;8.49421771;2023-10-19T01:48:41;9.20;99.90
1644;DHT22;46825;51.99869940;8.49421771;2023-10-19T01:49:42;9.30;99.90
1644;DHT22;46825;51.99869940;8.49421771;2023-10-19T01:50:45;11.80;99.90
1644;DHT22;46825;51.99869940;8.49421771;2023-10-19T01:51:47;9.30;99.90
1644;DHT22;46825;51.99869940;8.49421771;2023-10-19T01:52:48;9.20;99.90
1644;DHT22;46825;51.99869940;8.49421771;2023-10-19T01:53:49;9.20;99.90
1644;DHT22;46825;51.99869940;8.49421771;2023-10-19T01:54:49;9.20;99.90
1644;DHT22;46825;51.99869940;8.49421771;2023-10-19T01:55:57;9.20;99.90
1644;DHT22;46825;51.99869940;8.49421771;2023-10-19T01:57:00;9.20;99.90
1644;DHT22;46825;51.99869940;8.49421771;2023-10-19T01:58:01;6.80;99.90
1644;DHT22;46825;51.99869940;8.49421771;2023-10-19T01:59:03;9.20;99.90
1644;DHT22;46825;51.99869940;8.49421771;2023-10-19T02:00:05;9.20;99.90
1644;DHT22;46825;51.99869940;8.49421771;2023-10-19T02:01:11;9.10;99.90
1644;DHT22;46825;51.99869940;8.49421771;2023-10-19T02:02:14;9.10;99.90
1644;DHT22;46825;51.99869940;8.49421771;2023-10-19T02:03:15;9.20;99.90
1644;DHT22;46825;51.99869940;8.49421771;2023-10-19T02:04:16;9.20;99.90
1644;DHT22;46825;51.99869940;8.49421771;2023-10-19T02:05:17;9.20;99.90
1644;DHT22;46825;51.99869940;8.49421771;2023-10-19T02:06:19;9.20;99.90
1644;DHT22;46825;51.99869940;8.49421771;2023-10-19T02:07:20;9.20;99.90
1644;DHT22;46825;51.99869940;8.49421771;2023-10-19T02:08:21;9.20;99.90
1644;DHT22;46825;51.99869940;8.49421771;2023-10-19T02:09:25;9.20;99.90
1644;DHT22;46825;51.99869940;8.49421771;2023-10-19T02:10:29;9.30;99.90
1644;DHT22;46825;51.99869940;8.49421771;2023-10-19T02:11:29;9.30;99.90
1644;DHT22;46825;51.99869940;8.49421771;2023-10-19T02:12:31;9.40;99.90
1644;DHT22;46825;51.99869940;8.49421771;2023-10-19T02:13:34;9.30;99.90
1644;DHT22;46825;51.99869940;8.49421771;2023-10-19T02:14:36;9.30;99.90
1644;DHT22;46825;51.99869940;8.49421771;2023-10-19T02:15:37;9.30;99.90
1644;DHT22;46825;51.99869940;8.49421771;2023-10-19T02:16:39;9.30;99.90
1644;DHT22;46825;51.99869940;8.49421771;2023-10-19T02:17:40;9.30;99.90
1644;DHT22;46825;51.99869940;8.49421771;2023-10-19T02:18:44;9.30;99.90
1644;DHT22;46825;51.99869940;8.49421771;2023-10-19T02:19:45;9.30;99.90
1644;DHT22;46825;51.99869940;8.49421771;2023-10-19T02:20:46;9.30;99.90
1644;DHT22;46825;51.99869940;8.49421771;2023-10-19T02:21:53;9.30;99.90
1644;DHT22;46825;51.99869940;8.49421771;2023-10-19T02:22:55;9.30;99.90
1644;DHT22;46825;51.99869940;8.49421771;2023-10-19T02:23:57;9.30;99.90
1644;DHT22;46825;51.99869940;8.49421771;2023-10-19T02:24:58;9.30;99.90
1644;DHT22;46825;51.99869940;8.49421771;2023-10-19T02:25:58;9.40;99.90
1644;DHT22;46825;51.99869940;8.49421771;2023-10-19T02:26:59;9.30;99.90
1644;DHT22;46825;51.99869940;8.49421771;2023-10-19T02:28:05;9.30;99.90
1644;DHT22;46825;51.99869940;8.49421771;2023-10-19T02:29:07;9.40;99.90
1644;DHT22;46825;51.99869940;8.49421771;2023-10-19T02:30:10;9.40;99.90
1644;DHT22;46825;51.99869940;8.49421771;2023-10-19T02:31:12;9.40;99.90
1644;DHT22;46825;51.99869940;8.49421771;2023-10-19T02:32:16;9.40;99.90
1644;DHT22;46825;51.99869940;8.49421771;2023-10-19T02:33:19;9.40;99.90
1644;DHT22;46825;51.99869940;8.49421771;2023-10-19T02:34:20;9.40;99.90
1644;DHT22;46825;51.99869940;8.49421771;2023-10-19T02:35:21;9.40;99.90
1644;DHT22;46825;51.99869940;8.49421771;2023-10-19T02:36:21;9.50;99.90
1644;DHT22;46825;51.99869940;8.49421771;2023-10-19T02:37:22;12.40;99.90
1644;DHT22;46825;51.99869940;8.49421771;2023-10-19T02:38:25;9.50;99.90
1644;DHT22;46825;51.99869940;8.49421771;2023-10-19T02:39:26;9.60;99.90
1644;DHT22;46825;51.99869940;8.49421771;2023-10-19T02:40:28;9.50;99.90
1644;DHT22;46825;51.99869940;8.49421771;2023-10-19T02:41:31;9.60;99.90
1644;DHT22;46825;51.99869940;8.49421771;2023-10-19T02:42:35;9.60;99.90
1644;DHT22;46825;51.99869940;8.49421771;2023-10-19T02:43:37;9.60;99.90
1644;DHT22;46825;51.99869940;8.49421771;2023-10-19T02:44:38;9.60;99.90
1644;DHT22;46825;51.99869940;8.49421771;2023-10-19T02:45:39;9.60;99.90
1644;DHT22;46825;51.99869940;8.49421771;2023-10-19T02:46:42;9.70;99.90
1644;DHT22;46825;51.99869940;8.49421771;2023-10-19T02:47:46;9.70;99.90
1644;DHT22;46825;51.99869940;8.49421771;2023-10-19T02:48:46;9.70;99.90
1644;DHT22;46825;51.99869940;8.49421771;2023-10-19T02:49:50;9.70;99.90
1644;DHT22;46825;51.99869940;8.49421771;2023-10-19T02:50:56;9.70;99.90
1644;DHT22;46825;51.99869940;8.49421771;2023-10-19T02:52:00;9.70;99.90
1644;DHT22;46825;51.99869940;8.49421771;2023-10-19T02:53:04;9.70;99.90
1644;DHT22;46825;51.99869940;8.49421771;2023-10-19T02:54:06;9.70;99.90
1644;DHT22;46825;51.99869940;8.49421771;2023-10-19T02:55:08;9.80;99.90
1644;DHT22;46825;51.99869940;8.49421771;2023-10-19T02:56:14;9.70;99.90
1644;DHT22;46825;51.99869940;8.49421771;2023-10-19T02:57:19;9.80;99.90
1644;DHT22;46825;51.99869940;8.49421771;2023-10-19T02:58:20;9.80;99.90
1644;DHT22;46825;51.99869940;8.49421771;2023-10-19T02:59:22;9.80;99.90
1644;DHT22;46825;51.99869940;8.49421771;2023-10-19T03:00:23;9.70;99.90
1644;DHT22;46825;51.99869940;8.49421771;2023-10-19T03:01:32;9.70;99.90
1644;DHT22;46825;51.99869940;8.49421771;2023-10-19T03:02:36;9.80;99.90
1644;DHT22;46825;51.99869940;8.49421771;2023-10-19T03:03:37;9.80;99.90
1644;DHT22;46825;51.99869940;8.49421771;2023-10-19T03:04:38;9.80;99.90
1644;DHT22;46825;51.99869940;8.49421771;2023-10-19T03:05:39;9.80;99.90
1644;DHT22;46825;51.99869940;8.49421771;2023-10-19T03:06:41;9.90;99.90
1644;DHT22;46825;51.99869940;8.49421771;2023-10-19T03:07:44;9.80;99.90
1644;DHT22;46825;51.99869940;8.49421771;2023-10-19T03:08:44;9.90;99.90
1644;DHT22;46825;51.99869940;8.49421771;2023-10-19T03:09:46;9.90;99.90
1644;DHT22;46825;51.99869940;8.49421771;2023-10-19T03:10:50;9.80;99.90
1644;DHT22;46825;51.99869940;8.49421771;2023-10-19T03:12:04;9.80;99.90
1644;DHT22;46825;51.99869940;8.49421771;2023-10-19T03:13:09;9.80;99.90
1644;DHT22;46825;51.99869940;8.49421771;2023-10-19T03:14:11;9.80;99.90
1644;DHT22;46825;51.99869940;8.49421771;2023-10-19T03:15:12;9.80;99.90
1644;DHT22;46825;51.99869940;8.49421771;2023-10-19T03:16:14;9.80;99.90
1644;DHT22;46825;51.99869940;8.49421771;2023-10-19T03:17:16;9.80;99.90
1644;DHT22;46825;51.99869940;8.49421771;2023-10-19T03:18:16;9.80;99.90
1644;DHT22;46825;51.99869940;8.49421771;2023-10-19T03:19:17;9.80;99.90
1644;DHT22;46825;51.99869940;8.49421771;2023-10-19T03:20:17;9.90;99.90
1644;DHT22;46825;51.99869940;8.49421771;2023-10-19T03:21:23;9.80;99.90
1644;DHT22;46825;51.99869940;8.49421771;2023-10-19T03:22:27;9.80;99.90
1644;DHT22;46825;51.99869940;8.49421771;2023-10-19T03:23:28;9.80;99.90
1644;DHT22;46825;51.99869940;8.49421771;2023-10-19T03:24:28;9.80;99.90
1644;DHT22;46825;51.99869940;8.49421771;2023-10-19T03:25:38;9.80;99.90
1644;DHT22;46825;51.99869940;8.49421771;2023-10-19T03:26:50;12.70;99.90
1644;DHT22;46825;51.99869940;8.49421771;2023-10-19T03:27:50;9.90;99.90
1644;DHT22;46825;51.99869940;8.49421771;2023-10-19T03:28:51;9.90;99.90
1644;DHT22;46825;51.99869940;8.49421771;2023-10-19T03:30:14;9.90;99.90
1644;DHT22;46825;51.99869940;8.49421771;2023-10-19T03:31:16;9.90;99.90
1644;DHT22;46825;51.99869940;8.49421771;2023-10-19T03:32:22;9.90;99.90
1644;DHT22;46825;51.99869940;8.49421771;2023-10-19T03:34:28;10.20;99.90
1644;DHT22;46825;51.99869940;8.49421771;2023-10-19T03:35:32;10.00;99.90
1644;DHT22;46825;51.99869940;8.49421771;2023-10-19T03:36:35;9.90;99.90
1644;DHT22;46825;51.99869940;8.49421771;2023-10-19T03:37:36;10.00;99.90
1644;DHT22;46825;51.99869940;8.49421771;2023-10-19T03:38:37;10.00;99.90
1644;DHT22;46825;51.99869940;8.49421771;2023-10-19T03:39:38;10.00;99.90
1644;DHT22;46825;51.99869940;8.49421771;2023-10-19T03:40:39;9.90;99.90
1644;DHT22;46825;51.99869940;8.49421771;2023-10-19T03:41:40;10.00;99.90
1644;DHT22;46825;51.99869940;8.49421771;2023-10-19T03:42:44;10.00;99.90
1644;DHT22;46825;51.99869940;8.49421771;2023-10-19T03:43:51;10.00;99.90
1644;DHT22;46825;51.99869940;8.49421771;2023-10-19T03:44:52;10.00;99.90
1644;DHT22;46825;51.99869940;8.49421771;2023-10-19T03:45:57;10.10;99.90
1644;DHT22;46825;51.99869940;8.49421771;2023-10-19T03:46:59;10.20;99.90
1644;DHT22;46825;51.99869940;8.49421771;2023-10-19T03:48:04;10.10;99.90
1644;DHT22;46825;51.99869940;8.49421771;2023-10-19T03:49:09;10.10;99.90
1644;DHT22;46825;51.99869940;8.49421771;2023-10-19T03:50:12;10.10;99.90
1644;DHT22;46825;51.99869940;8.49421771;2023-10-19T03:51:15;10.10;99.90
1644;DHT22;46825;51.99869940;8.49421771;2023-10-19T03:52:18;10.20;99.90
1644;DHT22;46825;51.99869940;8.49421771;2023-10-19T03:53:18;10.10;99.90
1644;DHT22;46825;51.99869940;8.49421771;2023-10-19T03:54:19;10.10;99.90
1644;DHT22;46825;51.99869940;8.49421771;2023-10-19T03:55:22;10.10;99.90
1644;DHT22;46825;51.99869940;8.49421771;2023-10-19T03:56:23;10.20;99.90
1644;DHT22;46825;51.99869940;8.49421771;2023-10-19T03:57:24;8.40;99.90
1644;DHT22;46825;51.99869940;8.49421771;2023-10-19T03:58:29;10.20;99.90
1644;DHT22;46825;51.99869940;8.49421771;2023-10-19T03:59:31;10.20;99.90
1644;DHT22;46825;51.99869940;8.49421771;2023-10-19T04:01:35;10.20;99.90
1644;DHT22;46825;51.99869940;8.49421771;2023-10-19T04:02:36;10.20;99.90
1644;DHT22;46825;51.99869940;8.49421771;2023-10-19T04:03:38;10.20;99.90
1644;DHT22;46825;51.99869940;8.49421771;2023-10-19T04:04:42;10.20;99.90
1644;DHT22;46825;51.99869940;8.49421771;2023-10-19T04:05:48;10.20;99.90
1644;DHT22;46825;51.99869940;8.49421771;2023-10-19T04:06:49;10.30;99.90
1644;DHT22;46825;51.99869940;8.49421771;2023-10-19T04:07:57;10.20;99.90
1644;DHT22;46825;51.99869940;8.49421771;2023-10-19T04:08:59;10.20;99.90
1644;DHT22;46825;51.99869940;8.49421771;2023-10-19T04:09:59;10.30;99.90
1644;DHT22;46825;51.99869940;8.49421771;2023-10-19T04:11:09;10.20;99.90
1644;DHT22;46825;51.99869940;8.49421771;2023-10-19T04:12:20;10.30;99.90
1644;DHT22;46825;51.99869940;8.49421771;2023-10-19T04:13:22;10.30;99.90
1644;DHT22;46825;51.99869940;8.49421771;2023-10-19T04:14:23;8.30;99.90
1644;DHT22;46825;51.99869940;8.49421771;2023-10-19T04:15:24;10.30;99.90
1644;DHT22;46825;51.99869940;8.49421771;2023-10-19T04:16:26;10.40;99.90
1644;DHT22;46825;51.99869940;8.49421771;2023-10-19T04:17:28;10.30;99.90
1644;DHT22;46825;51.99869940;8.49421771;2023-10-19T04:18:28;10.30;99.90
1644;DHT22;46825;51.99869940;8.49421771;2023-10-19T04:19:29;10.30;99.90
1644;DHT22;46825;51.99869940;8.49421771;2023-10-19T04:20:29;10.30;99.90
1644;DHT22;46825;51.99869940;8.49421771;2023-10-19T04:21:36;10.30;99.90
1644;DHT22;46825;51.99869940;8.49421771;2023-10-19T04:22:39;10.30;99.90
1644;DHT22;46825;51.99869940;8.49421771;2023-10-19T04:23:39;10.30;99.90
1644;DHT22;46825;51.99869940;8.49421771;2023-10-19T04:24:41;10.40;99.90
1644;DHT22;46825;51.99869940;8.49421771;2023-10-19T04:25:41;10.40;99.90
1644;DHT22;46825;51.99869940;8.49421771;2023-10-19T04:26:42;10.50;99.90
1644;DHT22;46825;51.99869940;8.49421771;2023-10-19T04:27:43;10.60;99.90
1644;DHT22;46825;51.99869940;8.49421771;2023-10-19T04:28:44;10.40;99.90
1644;DHT22;46825;51.99869940;8.49421771;2023-10-19T04:29:50;10.40;99.90
1644;DHT22;46825;51.99869940;8.49421771;2023-10-19T04:30:52;10.40;99.90
1644;DHT22;46825;51.99869940;8.49421771;2023-10-19T04:31:53;10.50;99.90
1644;DHT22;46825;51.99869940;8.49421771;2023-10-19T04:32:57;10.40;99.90
1644;DHT22;46825;51.99869940;8.49421771;2023-10-19T04:33:57;10.50;99.90
1644;DHT22;46825;51.99869940;8.49421771;2023-10-19T04:34:58;10.50;99.90
1644;DHT22;46825;51.99869940;8.49421771;2023-10-19T04:35:59;10.40;99.90
1644;DHT22;46825;51.99869940;8.49421771;2023-10-19T04:37:00;10.40;99.90
1644;DHT22;46825;51.99869940;8.49421771;2023-10-19T04:38:06;10.50;99.90
1644;DHT22;46825;51.99869940;8.49421771;2023-10-19T04:39:07;10.50;99.90
1644;DHT22;46825;51.99869940;8.49421771;2023-10-19T04:40:12;10.50;99.90
1644;DHT22;46825;51.99869940;8.49421771;2023-10-19T04:41:12;10.50;99.90
1644;DHT22;46825;51.99869940;8.49421771;2023-10-19T04:42:13;10.50;99.90
1644;DHT22;46825;51.99869940;8.49421771;2023-10-19T04:43:15;10.50;99.90
1644;DHT22;46825;51.99869940;8.49421771;2023-10-19T04:44:16;10.50;99.90
1644;DHT22;46825;51.99869940;8.49421771;2023-10-19T04:45:17;10.50;99.90
1644;DHT22;46825;51.99869940;8.49421771;2023-10-19T04:46:18;10.50;99.90
1644;DHT22;46825;51.99869940;8.49421771;2023-10-19T04:47:19;10.50;99.90
1644;DHT22;46825;51.99869940;8.49421771;2023-10-19T04:48:19;10.60;99.90
1644;DHT22;46825;51.99869940;8.49421771;2023-10-19T04:49:20;10.60;99.90
1644;DHT22;46825;51.99869940;8.49421771;2023-10-19T04:50:21;10.60;99.90
1644;DHT22;46825;51.99869940;8.49421771;2023-10-19T04:51:22;10.50;99.90
1644;DHT22;46825;51.99869940;8.49421771;2023-10-19T04:52:22;10.60;99.90
1644;DHT22;46825;51.99869940;8.49421771;2023-10-19T04:53:23;10.60;99.90
1644;DHT22;46825;51.99869940;8.49421771;2023-10-19T04:54:23;10.60;99.90
1644;DHT22;46825;51.99869940;8.49421771;2023-10-19T04:55:24;10.70;99.90
1644;DHT22;46825;51.99869940;8.49421771;2023-10-19T04:56:25;10.70;99.90
1644;DHT22;46825;51.99869940;8.49421771;2023-10-19T04:57:25;10.70;99.90
1644;DHT22;46825;51.99869940;8.49421771;2023-10-19T04:58:27;10.70;99.90
1644;DHT22;46825;51.99869940;8.49421771;2023-10-19T04:59:28;10.70;99.90
1644;DHT22;46825;51.99869940;8.49421771;2023-10-19T05:00:33;10.80;99.90
1644;DHT22;46825;51.99869940;8.49421771;2023-10-19T05:01:34;10.80;99.90
1644;DHT22;46825;51.99869940;8.49421771;2023-10-19T05:02:34;10.80;99.90
1644;DHT22;46825;51.99869940;8.49421771;2023-10-19T05:03:35;10.80;99.90
1644;DHT22;46825;51.99869940;8.49421771;2023-10-19T05:04:35;10.90;99.90
1644;DHT22;46825;51.99869940;8.49421771;2023-10-19T05:05:36;10.80;99.90
1644;DHT22;46825;51.99869940;8.49421771;2023-10-19T05:06:38;10.80;99.90
1644;DHT22;46825;51.99869940;8.49421771;2023-10-19T05:07:39;10.80;99.90
1644;DHT22;46825;51.99869940;8.49421771;2023-10-19T05:08:40;10.80;99.90
1644;DHT22;46825;51.99869940;8.49421771;2023-10-19T05:09:40;10.90;99.90
1644;DHT22;46825;51.99869940;8.49421771;2023-10-19T05:10:41;10.80;99.90
1644;DHT22;46825;51.99869940;8.49421771;2023-10-19T05:11:42;10.80;99.90
1644;DHT22;46825;51.99869940;8.49421771;2023-10-19T05:12:44;11.10;99.90
1644;DHT22;46825;51.99869940;8.49421771;2023-10-19T05:13:45;10.80;99.90
1644;DHT22;46825;51.99869940;8.49421771;2023-10-19T05:14:45;10.80;99.90
1644;DHT22;46825;51.99869940;8.49421771;2023-10-19T05:15:46;10.80;99.90
1644;DHT22;46825;51.99869940;8.49421771;2023-10-19T05:16:47;10.80;99.90
1644;DHT22;46825;51.99869940;8.49421771;2023-10-19T05:17:48;10.90;99.90
1644;DHT22;46825;51.99869940;8.49421771;2023-10-19T05:18:49;10.90;99.90
1644;DHT22;46825;51.99869940;8.49421771;2023-10-19T05:19:49;10.80;99.90
1644;DHT22;46825;51.99869940;8.49421771;2023-10-19T05:20:50;10.80;99.90
1644;DHT22;46825;51.99869940;8.49421771;2023-10-19T05:21:55;10.90;99.90
1644;DHT22;46825;51.99869940;8.49421771;2023-10-19T05:22:56;10.80;99.90
1644;DHT22;46825;51.99869940;8.49421771;2023-10-19T05:23:58;8.50;99.90
1644;DHT22;46825;51.99869940;8.49421771;2023-10-19T05:25:00;10.80;99.90
1644;DHT22;46825;51.99869940;8.49421771;2023-10-19T05:26:03;10.90;99.90
1644;DHT22;46825;51.99869940;8.49421771;2023-10-19T05:27:04;10.90;99.90
1644;DHT22;46825;51.99869940;8.49421771;2023-10-19T05:28:05;10.90;99.90
1644;DHT22;46825;51.99869940;8.49421771;2023-10-19T05:29:06;10.90;99.90
1644;DHT22;46825;51.99869940;8.49421771;2023-10-19T05:30:07;10.90;99.90
1644;DHT22;46825;51.99869940;8.49421771;2023-10-19T05:31:10;10.90;99.90
1644;DHT22;46825;51.99869940;8.49421771;2023-10-19T05:32:12;10.90;99.90
1644;DHT22;46825;51.99869940;8.49421771;2023-10-19T05:33:12;10.90;99.90
1644;DHT22;46825;51.99869940;8.49421771;2023-10-19T05:34:13;10.90;99.90
1644;DHT22;46825;51.99869940;8.49421771;2023-10-19T05:35:16;10.90;99.90
1644;DHT22;46825;51.99869940;8.49421771;2023-10-19T05:36:23;10.90;99.90
1644;DHT22;46825;51.99869940;8.49421771;2023-10-19T05:37:25;11.00;99.90
1644;DHT22;46825;51.99869940;8.49421771;2023-10-19T05:38:29;11.00;99.90
1644;DHT22;46825;51.99869940;8.49421771;2023-10-19T05:39:32;11.00;99.90
1644;DHT22;46825;51.99869940;8.49421771;2023-10-19T05:41:36;11.00;99.90
1644;DHT22;46825;51.99869940;8.49421771;2023-10-19T05:42:38;11.00;99.90
1644;DHT22;46825;51.99869940;8.49421771;2023-10-19T05:43:38;11.00;99.90
1644;DHT22;46825;51.99869940;8.49421771;2023-10-19T05:44:39;11.10;99.90
1644;DHT22;46825;51.99869940;8.49421771;2023-10-19T05:45:40;11.00;99.90
1644;DHT22;46825;51.99869940;8.49421771;2023-10-19T05:46:40;11.00;99.90
1644;DHT22;46825;51.99869940;8.49421771;2023-10-19T05:47:41;11.00;99.90
1644;DHT22;46825;51.99869940;8.49421771;2023-10-19T05:48:42;11.00;99.90
1644;DHT22;46825;51.99869940;8.49421771;2023-10-19T05:49:42;11.00;99.90
1644;DHT22;46825;51.99869940;8.49421771;2023-10-19T05:50:43;11.10;99.90
1644;DHT22;46825;51.99869940;8.49421771;2023-10-19T05:51:43;11.10;99.90
1644;DHT22;46825;51.99869940;8.49421771;2023-10-19T05:52:47;11.10;99.90
1644;DHT22;46825;51.99869940;8.49421771;2023-10-19T05:53:49;11.10;99.90
1644;DHT22;46825;51.99869940;8.49421771;2023-10-19T05:54:51;11.10;99.90
1644;DHT22;46825;51.99869940;8.49421771;2023-10-19T05:55:54;11.10;99.90
1644;DHT22;46825;51.99869940;8.49421771;2023-10-19T05:56:54;11.10;99.90
1644;DHT22;46825;51.99869940;8.49421771;2023-10-19T05:57:55;9.40;99.90